Bangor, ME

8:48 AM EDT on March 23, 2017 (GMT -0400)
Essex St Hill | | Change Station

Elev 208 ft 44.82 °N, 68.77 °W | Updated 10 seconds ago

Clear
Clear
12.5 °F
Feels Like -3 °F
N
14.0
Wind Variable Wind from NNW
Gusts 25.0 mph

Today
High -- | Low -- °F
--% Chance of Precip.
Yesterday
High -- | Low -- °F
Precip. -- in
Pressure 30.32 in
Visibility 10.0 miles
Clouds Clear
Windchill -3 °F
Dew Point -8 °F
Humidity 39%
Rainfall 0.00 in
Snow Depth Not available.
6:32 AM 6:51 PM
Waning Crescent, 23% visible
METAR KBGR 231153Z COR 31016G24KT 10SM CLR M12/M21 A3030 RMK AO2 SLP265 T11171211 11117 21122 4/006 51020
Pressure 30.32 in
Visibility 10.0 miles
Clouds Clear
Windchill -3 °F
Dew Point -8 °F
Humidity 39%
Rainfall 0.00 in
Snow Depth Not available.
6:32 AM 6:51 PM
Waning Crescent, 23% visible
METAR KBGR 231153Z COR 31016G24KT 10SM CLR M12/M21 A3030 RMK AO2 SLP265 T11171211 11117 21122 4/006 51020

Get Severe Weather Alerts

Thanks for signing up!

Be on the lookout for a verification email in your inbox.

You'll start receiving the daily forecast at 8 AM.

×

10-Day Weather Forecast

Almanac

Astronomy

Mar. 23, 2017 Rise Set
Actual Time
Civil Twilight
Nautical Twilight
Astronomical Twilight
Moon
Length of Visible Light
Length of Day
Tomorrow will be .
, % of the Moon is Illuminated

Today's Extremes

State Highs State Lows

Community

WunderPhotos

Upload Photos

1,962,540 photos uploaded!

WunderBlog® & News

Nearby

Air Quality

  Air Quality AQ Index Pollutant
Not available.

Snow Depth

Station Depth Elevation

Earthquake Activity

City Distance Mag. Time & Date
Minimum magnitude displayed is 2.5.

Earthquake Activity

City Distance Mag. Time & Date
Minimum magnitude displayed is 2.5.

Coastal Water Temperatures

Place Temperature

Stations

Nearby Weather Stations

Station Location Temp. Windchill Dew Point Humidity Wind Precip. Elev Updated Type
                   

Watches & Warnings

There are currently no watches in effect.